X  Sluiten METAR luchtvaart weer gegevens      EFPO Pori Airport
Temperatuur
14°C Temperatuur
8°C Dauwpunt
67% Vochtigheid



Wind
3 M/S
7 MPH
11 KM/U
6 KTS



130°
ZO
Huidig weer

Helder Helder
Luchtdruk 1028.92 (hPa) - 30.38 (inHg)
Zicht 6.2 (mijl) - 10 (km)
Vliegveld
Vliegveld code EFPO

Locatie : Pori Airport
Afstand: 56 (km)

Metar:
EFPO 270920Z AUTO 13006KT CAVOK 14/08 Q1029

Tijd: 27-09-2021 12:20 EEST